createdAt,value
2018-06-05T00:01:24.403Z,25.27
2018-06-05T00:03:52.768Z,26.27
2018-06-05T00:06:21.114Z,25.83
2018-06-05T00:08:49.482Z,25.47
2018-06-05T00:11:17.960Z,25.53
2018-06-05T00:13:46.346Z,25.90
2018-06-05T00:16:14.814Z,26.33
2018-06-05T00:18:43.169Z,25.43
2018-06-05T00:21:11.506Z,25.57
2018-06-05T00:23:39.686Z,26.80
2018-06-05T00:26:10.060Z,26.43
2018-06-05T00:28:38.665Z,26.83
2018-06-05T00:31:06.963Z,26.43
2018-06-05T00:33:35.438Z,27.87
2018-06-05T00:36:03.825Z,26.80
2018-06-05T00:38:32.202Z,26.03
2018-06-05T00:41:00.654Z,27.27
2018-06-05T00:43:29.047Z,26.63
2018-06-05T00:45:57.373Z,28.07
2018-06-05T00:48:25.729Z,26.60
2018-06-05T00:50:54.086Z,27.60
2018-06-05T00:53:22.499Z,26.40
2018-06-05T00:55:50.902Z,28.27
2018-06-05T00:58:19.212Z,27.47
2018-06-05T01:00:47.720Z,28.90
2018-06-05T01:03:15.997Z,27.97
2018-06-05T01:05:44.414Z,27.50
2018-06-05T01:08:12.810Z,26.23
2018-06-05T01:10:41.331Z,27.03
2018-06-05T01:13:09.674Z,28.20
2018-06-05T01:15:38.080Z,26.90
2018-06-05T01:18:06.406Z,26.17
2018-06-05T01:20:34.814Z,25.17
2018-06-05T01:23:03.266Z,25.93
2018-06-05T01:25:31.590Z,24.57
2018-06-05T01:27:59.922Z,25.20
2018-06-05T01:30:28.278Z,25.20
2018-06-05T01:32:56.669Z,26.47
2018-06-05T01:35:24.914Z,25.10
2018-06-05T01:37:53.281Z,26.30
2018-06-05T01:40:21.763Z,26.07
2018-06-05T01:42:50.081Z,26.07
2018-06-05T01:45:19.217Z,26.43
2018-06-05T01:47:47.397Z,25.97
2018-06-05T01:50:15.815Z,25.03
2018-06-05T01:52:44.146Z,24.73
2018-06-05T01:55:12.485Z,25.03
2018-06-05T01:57:40.748Z,24.83
2018-06-05T02:00:09.110Z,26.00
2018-06-05T02:02:37.431Z,24.93
2018-06-05T02:05:06.026Z,26.10
2018-06-05T02:07:34.402Z,25.27
2018-06-05T02:10:02.850Z,25.10
2018-06-05T02:12:31.275Z,25.80
2018-06-05T02:14:59.599Z,25.97
2018-06-05T02:17:28.066Z,25.17
2018-06-05T02:19:56.474Z,28.30
2018-06-05T02:22:24.802Z,26.53
2018-06-05T02:24:53.150Z,27.43
2018-06-05T02:27:21.482Z,27.53
2018-06-05T02:29:49.933Z,27.80
2018-06-05T02:32:18.221Z,28.00
2018-06-05T02:34:46.390Z,27.87
2018-06-05T02:37:14.807Z,28.60
2018-06-05T02:39:43.197Z,28.00
2018-06-05T02:42:11.545Z,30.00
2018-06-05T02:44:39.821Z,28.73
2018-06-05T02:47:08.217Z,29.67
2018-06-05T02:49:36.750Z,28.17
2018-06-05T02:52:05.048Z,27.93
2018-06-05T02:54:33.374Z,28.63
2018-06-05T02:57:01.718Z,29.30
2018-06-05T02:59:30.034Z,27.83
2018-06-05T03:01:58.414Z,28.10
2018-06-05T03:04:26.824Z,29.27
2018-06-05T03:06:55.160Z,28.80
2018-06-05T03:09:23.660Z,29.73
2018-06-05T03:11:52.004Z,28.93
2018-06-05T03:14:20.406Z,27.77
2018-06-05T03:16:49.014Z,29.17
2018-06-05T03:19:17.358Z,28.53
2018-06-05T03:21:45.710Z,27.40
2018-06-05T03:24:13.957Z,29.23
2018-06-05T03:26:42.291Z,28.27
2018-06-05T03:29:10.575Z,28.17
2018-06-05T03:31:38.890Z,29.03
2018-06-05T03:34:07.252Z,28.53
2018-06-05T03:36:35.819Z,29.17
2018-06-05T03:39:05.761Z,27.20
2018-06-05T03:41:34.147Z,27.30
2018-06-05T03:44:02.607Z,25.97
2018-06-05T03:46:30.939Z,27.60
2018-06-05T03:48:59.290Z,26.67
2018-06-05T03:51:27.644Z,26.37
2018-06-05T03:53:55.834Z,25.90
2018-06-05T03:56:24.242Z,27.73
2018-06-05T03:58:52.570Z,26.47
2018-06-05T04:01:20.921Z,25.60
2018-06-05T04:03:49.378Z,25.30
2018-06-05T04:06:20.721Z,25.40
2018-06-05T04:08:52.441Z,25.77
2018-06-05T04:11:22.279Z,26.00
2018-06-05T04:13:54.432Z,23.77
2018-06-05T04:16:23.561Z,26.00
2018-06-05T04:18:52.012Z,24.73
2018-06-05T04:21:20.345Z,26.23
2018-06-05T04:23:48.687Z,23.43
2018-06-05T04:26:17.350Z,25.83
2018-06-05T04:28:45.541Z,26.30
2018-06-05T04:31:13.898Z,25.17
2018-06-05T04:33:42.251Z,24.77
2018-06-05T04:36:10.476Z,24.30
2018-06-05T04:38:38.835Z,25.30
2018-06-05T04:41:07.177Z,24.90
2018-06-05T04:43:35.530Z,23.03
2018-06-05T04:46:03.902Z,26.40
2018-06-05T04:48:32.157Z,25.27
2018-06-05T04:51:00.535Z,25.00
2018-06-05T04:53:28.904Z,24.97
2018-06-05T04:55:57.253Z,24.47
2018-06-05T04:58:25.713Z,23.83
2018-06-05T05:00:54.093Z,21.90
2018-06-05T05:03:22.462Z,24.23
2018-06-05T05:05:50.798Z,23.50
2018-06-05T05:08:19.327Z,24.80
2018-06-05T05:10:47.881Z,23.57
2018-06-05T05:13:16.186Z,25.90
2018-06-05T05:15:44.416Z,25.87
2018-06-05T05:18:12.912Z,26.67
2018-06-05T05:20:41.229Z,26.33
2018-06-05T05:23:09.670Z,29.83
2018-06-05T05:25:38.023Z,30.67
2018-06-05T05:28:06.222Z,30.30
2018-06-05T05:30:34.518Z,30.87
2018-06-05T05:33:02.890Z,31.27
2018-06-05T05:35:31.162Z,31.27
2018-06-05T05:37:59.498Z,28.83
2018-06-05T05:40:27.857Z,28.50
2018-06-05T05:42:56.089Z,29.97
2018-06-05T05:45:24.498Z,31.30
2018-06-05T05:47:52.844Z,28.93
2018-06-05T05:50:21.226Z,30.10
2018-06-05T05:52:49.654Z,28.50
2018-06-05T05:55:17.981Z,28.13
2018-06-05T05:57:46.385Z,27.33
2018-06-05T06:00:14.765Z,28.10
2018-06-05T06:02:43.325Z,26.77
2018-06-05T06:05:11.642Z,27.57
2018-06-05T06:07:40.113Z,27.07
2018-06-05T06:10:08.555Z,26.87
2018-06-05T06:12:36.957Z,27.63
2018-06-05T06:15:05.554Z,26.97
2018-06-05T06:17:33.927Z,26.63
2018-06-05T06:20:02.412Z,27.33
2018-06-05T06:22:30.715Z,25.97
2018-06-05T06:24:59.153Z,25.67
2018-06-05T06:27:27.620Z,26.37
2018-06-05T06:29:55.977Z,25.30
2018-06-05T06:32:24.186Z,25.60
2018-06-05T06:34:52.531Z,24.80
2018-06-05T06:37:20.912Z,25.70
2018-06-05T06:39:49.463Z,26.67
2018-06-05T06:42:17.924Z,26.17
2018-06-05T06:44:46.289Z,27.77
2018-06-05T06:47:14.748Z,28.27
2018-06-05T06:49:43.181Z,28.57
2018-06-05T06:52:11.564Z,29.70
2018-06-05T06:54:39.986Z,28.90
2018-06-05T06:57:08.433Z,28.37
2018-06-05T06:59:36.888Z,29.20
2018-06-05T07:02:05.292Z,28.70
2018-06-05T07:04:33.937Z,30.60
2018-06-05T07:07:02.291Z,30.77
2018-06-05T07:09:30.642Z,31.40
2018-06-05T07:11:58.953Z,29.90
2018-06-05T07:14:27.452Z,31.23
2018-06-05T07:16:55.926Z,31.83
2018-06-05T07:19:24.254Z,30.67
2018-06-05T07:21:52.766Z,29.57
2018-06-05T07:24:21.160Z,30.37
2018-06-05T07:26:49.390Z,30.50
2018-06-05T07:29:17.677Z,30.67
2018-06-05T07:31:45.971Z,34.33
2018-06-05T07:34:14.271Z,34.23
2018-06-05T07:42:43.581Z,33.33
2018-06-05T07:45:12.497Z,33.60
2018-06-05T07:47:41.223Z,32.10
2018-06-05T07:50:09.944Z,31.53
2018-06-05T07:52:38.301Z,33.07
2018-06-05T07:55:07.195Z,32.30
2018-06-05T07:57:35.687Z,31.27
2018-06-05T08:00:04.445Z,33.27
2018-06-05T08:02:32.879Z,36.10
2018-06-05T08:05:01.264Z,34.73
2018-06-05T08:07:29.665Z,32.67
2018-06-05T08:09:58.250Z,34.90
2018-06-05T08:12:27.394Z,34.60
2018-06-05T08:14:55.869Z,33.23
2018-06-05T08:17:24.277Z,32.00
2018-06-05T08:19:52.643Z,33.63
2018-06-05T08:22:21.093Z,34.50
2018-06-05T08:24:49.557Z,33.57
2018-06-05T08:27:17.923Z,31.43
2018-06-05T08:29:46.343Z,34.27
2018-06-05T08:32:16.908Z,33.83
2018-06-05T08:34:45.451Z,33.73
2018-06-05T08:37:13.849Z,33.40
2018-06-05T08:39:42.190Z,34.73
2018-06-05T08:42:10.560Z,33.87
2018-06-05T08:44:38.999Z,32.43
2018-06-05T08:47:07.743Z,34.10
2018-06-05T08:49:36.171Z,33.07
2018-06-05T08:52:04.502Z,34.20
2018-06-05T08:54:32.866Z,33.07
2018-06-05T08:57:01.196Z,31.47
2018-06-05T08:59:29.568Z,33.17
2018-06-05T09:01:57.915Z,31.60
2018-06-05T09:04:26.307Z,32.87
2018-06-05T09:06:54.577Z,31.73
2018-06-05T09:09:23.233Z,33.43
2018-06-05T09:11:51.647Z,32.20
2018-06-05T09:14:20.150Z,32.57
2018-06-05T09:16:48.545Z,32.00
2018-06-05T09:19:16.949Z,35.83
2018-06-05T09:21:45.326Z,39.13
2018-06-05T09:24:13.761Z,39.00
2018-06-05T09:26:42.107Z,38.37
2018-06-05T09:29:10.329Z,38.80
2018-06-05T09:31:38.858Z,37.60
2018-06-05T09:34:07.232Z,34.93
2018-06-05T09:36:35.569Z,34.13
2018-06-05T09:39:06.729Z,33.73
2018-06-05T09:41:35.258Z,32.53
2018-06-05T09:44:04.092Z,34.27
2018-06-05T09:46:32.483Z,35.40
2018-06-05T09:49:00.829Z,35.10
2018-06-05T09:51:29.212Z,35.53
2018-06-05T09:53:57.448Z,34.70
2018-06-05T09:56:25.843Z,35.80
2018-06-05T09:58:54.113Z,35.90
2018-06-05T10:01:22.655Z,33.10
2018-06-05T10:03:51.163Z,33.47
2018-06-05T10:06:23.339Z,41.60
2018-06-05T10:08:52.723Z,41.20
2018-06-05T10:11:24.169Z,44.33
2018-06-05T10:13:53.771Z,42.67
2018-06-05T10:16:24.955Z,43.93
2018-06-05T10:18:53.364Z,42.50
2018-06-05T10:21:21.721Z,43.23
2018-06-05T10:23:50.092Z,43.87
2018-06-05T10:26:18.457Z,47.57
2018-06-05T10:28:46.938Z,46.87
2018-06-05T10:31:15.249Z,47.53
2018-06-05T10:33:43.870Z,46.23
2018-06-05T10:36:12.271Z,46.70
2018-06-05T10:38:40.647Z,47.13
2018-06-05T10:41:09.216Z,47.53
2018-06-05T10:43:37.804Z,47.03
2018-06-05T10:46:06.279Z,46.50
2018-06-05T10:48:34.464Z,49.17
2018-06-05T10:51:02.835Z,48.73
2018-06-05T10:53:31.251Z,48.67
2018-06-05T10:55:59.665Z,49.03
2018-06-05T10:58:28.157Z,49.63
2018-06-05T11:00:56.531Z,49.53
2018-06-05T11:03:24.922Z,49.63
2018-06-05T11:05:53.369Z,48.73
2018-06-05T11:08:21.728Z,47.67
2018-06-05T11:10:51.324Z,45.67
2018-06-05T11:13:19.839Z,47.33
2018-06-05T11:15:48.215Z,50.60
2018-06-05T11:18:16.616Z,51.97
2018-06-05T11:20:45.080Z,50.40
2018-06-05T11:23:13.475Z,48.63
2018-06-05T11:25:41.868Z,51.17
2018-06-05T11:28:10.284Z,50.70
2018-06-05T11:30:38.737Z,51.37
2018-06-05T11:33:07.105Z,49.70
2018-06-05T11:35:35.600Z,50.83
2018-06-05T11:38:04.000Z,46.10
2018-06-05T11:40:32.487Z,49.73
2018-06-05T11:43:00.854Z,49.77
2018-06-05T11:45:29.223Z,49.00
2018-06-05T11:47:57.815Z,48.47
2018-06-05T11:50:26.249Z,46.53
2018-06-05T11:52:54.594Z,44.90
2018-06-05T11:55:23.176Z,42.83
2018-06-05T11:57:51.564Z,44.93
2018-06-05T12:00:20.984Z,46.87
2018-06-05T12:02:49.429Z,47.67
2018-06-05T12:05:17.748Z,46.40
2018-06-05T12:07:46.313Z,46.37
2018-06-05T12:10:15.555Z,44.27
2018-06-05T12:12:44.059Z,46.07
2018-06-05T12:15:12.481Z,47.07
2018-06-05T12:17:40.858Z,47.63
2018-06-05T12:20:09.202Z,47.27
2018-06-05T12:22:38.538Z,48.17
2018-06-05T12:25:07.097Z,47.93
2018-06-05T12:27:36.425Z,48.10
2018-06-05T12:30:04.912Z,43.97
2018-06-05T12:32:33.273Z,47.30
2018-06-05T12:35:01.655Z,48.77
2018-06-05T12:37:30.070Z,49.87
2018-06-05T12:39:58.335Z,48.40
2018-06-05T12:42:27.082Z,46.40
2018-06-05T12:44:55.513Z,47.70
2018-06-05T12:47:24.063Z,49.33
2018-06-05T12:49:52.628Z,48.47
2018-06-05T12:52:21.244Z,47.23
2018-06-05T12:54:49.468Z,48.23
2018-06-05T12:57:18.908Z,49.17
2018-06-05T12:59:47.296Z,49.43
2018-06-05T13:02:15.723Z,48.03
2018-06-05T13:04:44.006Z,51.73
2018-06-05T13:07:12.228Z,53.77
2018-06-05T13:09:41.089Z,52.17
2018-06-05T13:12:09.346Z,54.67
2018-06-05T13:14:37.839Z,55.33
2018-06-05T13:17:06.293Z,57.40
2018-06-05T13:19:34.779Z,55.93
2018-06-05T13:22:03.241Z,56.93
2018-06-05T13:24:31.566Z,55.73
2018-06-05T13:27:03.499Z,57.77
2018-06-05T13:29:32.496Z,56.67
2018-06-05T13:32:01.048Z,55.37
2018-06-05T13:34:29.438Z,57.97
2018-06-05T13:36:57.899Z,57.50
2018-06-05T13:39:26.241Z,55.00
2018-06-05T13:41:54.773Z,55.77
2018-06-05T13:44:23.067Z,54.47
2018-06-05T13:46:51.381Z,55.33
2018-06-05T13:49:19.823Z,54.17
2018-06-05T13:51:48.308Z,54.77
2018-06-05T13:54:16.703Z,55.93
2018-06-05T13:56:45.043Z,56.93
2018-06-05T13:59:13.525Z,56.50
2018-06-05T14:01:41.938Z,56.70
2018-06-05T14:04:10.338Z,52.27
2018-06-05T14:06:38.719Z,53.23
2018-06-05T14:09:08.707Z,50.00
2018-06-05T14:11:37.155Z,49.50
2018-06-05T14:14:05.807Z,45.73
2018-06-05T14:16:34.162Z,49.70
2018-06-05T14:19:02.577Z,41.73
2018-06-05T14:21:30.906Z,41.83
2018-06-05T14:23:59.334Z,46.47
2018-06-05T14:26:27.962Z,43.67
2018-06-05T14:28:56.412Z,47.93
2018-06-05T14:31:24.763Z,50.07
2018-06-05T14:33:53.154Z,48.33
2018-06-05T14:36:23.237Z,48.03
2018-06-05T14:38:51.610Z,49.93
2018-06-05T14:41:20.124Z,48.63
2018-06-05T14:43:48.353Z,47.77
2018-06-05T14:46:16.814Z,44.17
2018-06-05T14:48:45.098Z,44.87
2018-06-05T14:51:13.674Z,42.43
2018-06-05T14:53:42.269Z,41.70
2018-06-05T14:56:10.728Z,41.20
2018-06-05T14:58:39.079Z,40.50
2018-06-05T15:01:07.526Z,39.63
2018-06-05T15:03:35.880Z,44.67
2018-06-05T15:06:04.235Z,42.77
2018-06-05T15:08:32.541Z,41.33
2018-06-05T15:11:03.006Z,39.80
2018-06-05T15:13:31.372Z,38.30
2018-06-05T15:15:59.909Z,38.47
2018-06-05T15:18:28.327Z,36.63
2018-06-05T15:20:56.560Z,34.90
2018-06-05T15:23:24.950Z,36.10
2018-06-05T15:25:53.561Z,35.40
2018-06-05T15:28:21.925Z,35.67
2018-06-05T15:30:50.738Z,32.57
2018-06-05T15:33:19.390Z,32.00
2018-06-05T15:35:48.829Z,32.83
2018-06-05T15:38:17.450Z,29.77
2018-06-05T15:40:45.870Z,28.67
2018-06-05T15:43:14.362Z,28.37
2018-06-05T15:45:42.713Z,26.83
2018-06-05T15:48:11.299Z,26.97
2018-06-05T15:50:39.697Z,27.93
2018-06-05T15:53:08.103Z,26.70
2018-06-05T15:55:36.566Z,25.47
2018-06-05T15:58:05.023Z,27.27
2018-06-05T16:00:33.465Z,25.80
2018-06-05T16:03:01.978Z,28.20
2018-06-05T16:05:30.412Z,26.57
2018-06-05T16:07:58.741Z,25.00
2018-06-05T16:10:27.123Z,26.80
2018-06-05T16:12:55.546Z,28.37
2018-06-05T16:15:24.636Z,27.37
2018-06-05T16:17:53.071Z,28.07
2018-06-05T16:20:21.538Z,27.23
2018-06-05T16:22:49.937Z,27.57
2018-06-05T16:25:18.469Z,25.13
2018-06-05T16:27:46.919Z,24.60
2018-06-05T16:30:15.315Z,23.37
2018-06-05T16:32:43.664Z,23.83
2018-06-05T16:35:12.035Z,23.97
2018-06-05T16:37:40.331Z,23.73
2018-06-05T16:40:08.713Z,23.43
2018-06-05T16:42:37.213Z,23.60
2018-06-05T16:45:05.693Z,25.27
2018-06-05T16:47:34.339Z,26.27
2018-06-05T16:50:02.838Z,24.70
2018-06-05T16:52:31.228Z,25.63
2018-06-05T16:54:59.546Z,26.30
2018-06-05T16:57:27.825Z,27.87
2018-06-05T16:59:56.245Z,27.63
2018-06-05T17:02:24.834Z,27.03
2018-06-05T17:04:53.367Z,25.90
2018-06-05T17:07:22.002Z,26.53
2018-06-05T17:09:50.593Z,26.53
2018-06-05T17:12:19.567Z,27.17
2018-06-05T17:14:48.572Z,26.77
2018-06-05T17:17:17.723Z,27.47
2018-06-05T17:19:46.750Z,27.80
2018-06-05T17:22:15.665Z,26.83
2018-06-05T17:24:44.686Z,27.03
2018-06-05T17:27:13.649Z,26.83
2018-06-05T17:29:42.347Z,25.80
2018-06-05T17:32:11.051Z,28.33
2018-06-05T17:34:39.374Z,26.77
2018-06-05T17:37:07.785Z,28.13
2018-06-05T17:39:36.282Z,27.17
2018-06-05T17:42:05.538Z,29.77
2018-06-05T17:44:33.860Z,28.00
2018-06-05T17:47:02.360Z,28.70
2018-06-05T17:49:30.742Z,29.97
2018-06-05T17:51:59.378Z,28.77
2018-06-05T17:54:27.768Z,28.47
2018-06-05T17:56:56.183Z,29.00
2018-06-05T17:59:24.961Z,28.23
2018-06-05T18:01:53.529Z,28.23
2018-06-05T18:04:22.398Z,28.33
2018-06-05T18:06:51.419Z,27.57
2018-06-05T18:09:20.127Z,27.40
2018-06-05T18:11:49.521Z,27.60
2018-06-05T18:14:18.534Z,27.83
2018-06-05T18:16:47.554Z,29.43
2018-06-05T18:19:17.051Z,28.43
2018-06-05T18:21:46.545Z,28.13
2018-06-05T18:24:16.075Z,28.70
2018-06-05T18:26:44.597Z,27.67
2018-06-05T18:29:13.026Z,28.53
2018-06-05T18:31:41.715Z,27.73
2018-06-05T18:34:10.168Z,30.20
2018-06-05T18:36:38.556Z,29.30
2018-06-05T18:39:08.388Z,30.47
2018-06-05T18:41:36.833Z,29.00
2018-06-05T18:44:05.231Z,28.63
2018-06-05T18:46:33.597Z,29.03
2018-06-05T18:49:01.974Z,28.40
2018-06-05T18:51:30.332Z,29.37
2018-06-05T18:53:58.822Z,28.97
2018-06-05T18:56:27.283Z,28.93
2018-06-05T18:58:55.698Z,29.33
2018-06-05T19:01:24.202Z,28.47
2018-06-05T19:03:52.594Z,27.63
2018-06-05T19:06:21.044Z,29.33
2018-06-05T19:08:49.266Z,26.83
2018-06-05T19:11:17.845Z,27.27
2018-06-05T19:13:46.182Z,27.53
2018-06-05T19:16:14.702Z,27.40
2018-06-05T19:18:43.133Z,27.47
2018-06-05T19:21:12.661Z,26.77
2018-06-05T19:23:41.347Z,26.50
2018-06-05T19:26:09.755Z,25.93
2018-06-05T19:28:38.208Z,26.93
2018-06-05T19:31:06.762Z,25.27
2018-06-05T19:33:35.230Z,25.00
2018-06-05T19:36:03.765Z,25.77
2018-06-05T19:38:32.175Z,24.13
2018-06-05T19:41:00.666Z,25.00
2018-06-05T19:43:29.119Z,26.03
2018-06-05T19:45:57.666Z,25.37
2018-06-05T19:48:26.147Z,23.87
2018-06-05T19:50:54.659Z,26.77
2018-06-05T19:53:23.139Z,25.27
2018-06-05T19:55:51.571Z,24.27
2018-06-05T19:58:20.090Z,25.57
2018-06-05T20:00:48.741Z,24.87
2018-06-05T20:03:17.215Z,25.57
2018-06-05T20:05:45.698Z,24.83
2018-06-05T20:08:14.303Z,25.97
2018-06-05T20:10:42.753Z,25.73
2018-06-05T20:13:11.229Z,26.10
2018-06-05T20:15:41.578Z,25.70
2018-06-05T20:18:10.083Z,25.47
2018-06-05T20:20:38.750Z,26.10
2018-06-05T20:23:07.871Z,25.47
2018-06-05T20:25:36.550Z,26.43
2018-06-05T20:28:05.034Z,26.83
2018-06-05T20:30:33.398Z,24.83
2018-06-05T20:33:01.810Z,25.97
2018-06-05T20:35:30.198Z,27.57
2018-06-05T20:37:58.775Z,26.93
2018-06-05T20:40:27.451Z,25.90
2018-06-05T20:42:55.858Z,26.30
2018-06-05T20:45:24.159Z,26.50
2018-06-05T20:47:52.634Z,26.90
2018-06-05T20:50:21.072Z,27.77
2018-06-05T20:52:49.504Z,25.23
2018-06-05T20:55:17.994Z,26.83
2018-06-05T20:57:46.366Z,27.90
2018-06-05T21:00:14.805Z,28.00
2018-06-05T21:02:43.231Z,27.83
2018-06-05T21:05:11.760Z,27.57
2018-06-05T21:07:40.206Z,28.53
2018-06-05T21:10:08.790Z,28.80
2018-06-05T21:12:37.178Z,28.40
2018-06-05T21:15:05.606Z,29.07
2018-06-05T21:17:34.122Z,28.73
2018-06-05T21:20:02.702Z,28.50
2018-06-05T21:22:31.269Z,29.43
2018-06-05T21:25:00.881Z,29.00
2018-06-05T21:27:29.416Z,29.47
2018-06-05T21:29:57.823Z,29.00
2018-06-05T21:32:26.211Z,27.93
2018-06-05T21:34:54.557Z,27.77
2018-06-05T21:37:22.935Z,30.23
2018-06-05T21:39:51.265Z,30.37
2018-06-05T21:42:19.835Z,29.27
2018-06-05T21:44:48.227Z,28.67
2018-06-05T21:47:16.659Z,28.93
2018-06-05T21:49:45.039Z,28.80
2018-06-05T21:52:13.425Z,30.40
2018-06-05T21:54:41.879Z,30.33
2018-06-05T21:57:10.253Z,28.97
2018-06-05T21:59:38.674Z,30.73
2018-06-05T22:02:07.299Z,30.63
2018-06-05T22:04:35.652Z,30.53
2018-06-05T22:07:04.086Z,31.90
2018-06-05T22:09:32.403Z,29.67
2018-06-05T22:12:00.804Z,29.40
2018-06-05T22:14:29.205Z,31.20
2018-06-05T22:16:57.623Z,29.63
2018-06-05T22:19:26.034Z,30.23
2018-06-05T22:21:54.375Z,29.90
2018-06-05T22:24:22.685Z,29.70
2018-06-05T22:26:51.048Z,30.80
2018-06-05T22:29:19.668Z,30.13
2018-06-05T22:31:48.048Z,29.40
2018-06-05T22:34:16.430Z,30.73
2018-06-05T22:36:44.810Z,30.20
2018-06-05T22:39:13.240Z,29.87
2018-06-05T22:41:41.574Z,30.50
2018-06-05T22:44:09.930Z,31.13
2018-06-05T22:46:38.304Z,31.97
2018-06-05T22:49:06.737Z,31.53
2018-06-05T22:51:34.952Z,29.33
2018-06-05T22:54:03.342Z,31.00
2018-06-05T22:56:31.905Z,30.73
2018-06-05T22:59:00.310Z,32.43
2018-06-05T23:01:28.686Z,32.77
2018-06-05T23:03:56.889Z,33.00
2018-06-05T23:06:25.303Z,33.33
2018-06-05T23:08:53.738Z,33.17
2018-06-05T23:11:22.074Z,33.60
2018-06-05T23:13:50.464Z,32.47
2018-06-05T23:16:18.834Z,32.87
2018-06-05T23:18:47.172Z,31.80
2018-06-05T23:21:15.723Z,33.17
2018-06-05T23:23:43.913Z,32.60
2018-06-05T23:26:12.401Z,32.47
2018-06-05T23:28:40.782Z,32.47
2018-06-05T23:31:09.149Z,33.43
2018-06-05T23:33:37.388Z,32.97
2018-06-05T23:36:05.825Z,34.40
2018-06-05T23:38:34.151Z,32.80
2018-06-05T23:41:02.523Z,33.13
2018-06-05T23:43:30.914Z,33.27
2018-06-05T23:45:59.329Z,33.03
2018-06-05T23:48:27.700Z,34.07
2018-06-05T23:50:56.046Z,34.47
2018-06-05T23:53:24.417Z,33.40
2018-06-05T23:55:52.822Z,34.07
2018-06-05T23:58:21.230Z,34.93
